createdAt,value
2022-08-09T00:00:12.018Z,19.92
2022-08-09T00:02:49.097Z,19.91
2022-08-09T00:06:18.272Z,19.90
2022-08-09T00:08:12.957Z,19.88
2022-08-09T00:10:58.117Z,19.77
2022-08-09T00:13:24.729Z,19.73
2022-08-09T00:15:59.734Z,19.74
2022-08-09T00:18:31.437Z,19.78
2022-08-09T00:21:04.339Z,19.70
2022-08-09T00:23:58.311Z,19.50
2022-08-09T00:26:17.728Z,19.51
2022-08-09T00:28:52.222Z,19.51
2022-08-09T00:31:57.047Z,19.54
2022-08-09T00:34:08.663Z,19.47
2022-08-09T00:36:37.683Z,19.38
2022-08-09T00:39:04.643Z,19.53
2022-08-09T00:44:16.133Z,19.63
2022-08-09T00:44:27.113Z,19.63
2022-08-09T00:47:04.448Z,19.56
2022-08-09T00:49:36.942Z,19.63
2022-08-09T00:52:17.263Z,19.59
2022-08-09T00:54:45.292Z,19.66
2022-08-09T00:57:12.174Z,19.68
2022-08-09T00:59:46.494Z,19.66
2022-08-09T01:02:19.294Z,19.56
2022-08-09T01:05:13.900Z,19.60
2022-08-09T01:08:00.209Z,19.49
2022-08-09T01:10:45.824Z,19.36
2022-08-09T01:13:41.851Z,19.26
2022-08-09T01:16:24.324Z,19.29
2022-08-09T01:19:02.567Z,19.26
2022-08-09T01:21:53.553Z,19.22
2022-08-09T01:24:32.581Z,19.15
2022-08-09T01:27:07.998Z,19.13
2022-08-09T01:29:55.117Z,19.01
2022-08-09T01:32:30.715Z,18.92
2022-08-09T01:35:29.205Z,18.95
2022-08-09T01:38:09.927Z,18.98
2022-08-09T01:40:43.655Z,18.81
2022-08-09T01:43:12.017Z,18.87
2022-08-09T01:45:44.848Z,19.03
2022-08-09T01:48:15.613Z,18.77
2022-08-09T01:50:48.344Z,18.82
2022-08-09T01:53:19.538Z,18.68
2022-08-09T01:55:48.189Z,18.74
2022-08-09T01:58:17.330Z,18.92
2022-08-09T02:00:50.430Z,18.96
2022-08-09T02:03:19.531Z,18.81
2022-08-09T02:06:03.270Z,18.95
2022-08-09T02:08:57.425Z,18.88
2022-08-09T02:11:41.994Z,18.70
2022-08-09T02:14:10.943Z,18.58
2022-08-09T02:16:59.220Z,18.50
2022-08-09T02:19:34.967Z,18.31
2022-08-09T02:22:34.955Z,18.48
2022-08-09T02:25:06.834Z,18.47
2022-08-09T02:27:57.409Z,18.41
2022-08-09T02:30:23.155Z,18.45
2022-08-09T02:32:54.430Z,18.33
2022-08-09T02:36:01.186Z,18.31
2022-08-09T02:38:21.818Z,18.36
2022-08-09T02:40:58.859Z,18.02
2022-08-09T02:43:29.050Z,18.13
2022-08-09T02:45:57.483Z,18.27
2022-08-09T02:48:30.654Z,18.19
2022-08-09T02:51:01.786Z,18.10
2022-08-09T02:53:43.083Z,18.12
2022-08-09T02:56:21.120Z,18.26
2022-08-09T02:58:49.554Z,18.23
2022-08-09T03:01:29.140Z,18.20
2022-08-09T03:04:16.628Z,18.20
2022-08-09T03:06:45.475Z,18.05
2022-08-09T03:09:13.910Z,18.06
2022-08-09T03:12:10.662Z,18.17
2022-08-09T03:14:32.109Z,18.14
2022-08-09T03:17:01.695Z,18.14
2022-08-09T03:19:58.528Z,18.17
2022-08-09T03:22:25.380Z,18.05
2022-08-09T03:25:06.186Z,18.00
2022-08-09T03:27:49.631Z,17.73
2022-08-09T03:30:30.144Z,17.76
2022-08-09T03:33:12.718Z,17.66
2022-08-09T03:36:15.707Z,17.73
2022-08-09T03:38:31.374Z,17.59
2022-08-09T03:40:58.323Z,17.61
2022-08-09T03:43:25.422Z,17.45
2022-08-09T03:46:03.230Z,17.45
2022-08-09T03:48:51.410Z,17.52
2022-08-09T03:51:43.644Z,17.50
2022-08-09T03:54:10.987Z,17.45
2022-08-09T03:56:40.940Z,17.42
2022-08-09T03:59:17.104Z,17.42
2022-08-09T04:01:50.089Z,17.31
2022-08-09T04:04:18.262Z,17.40
2022-08-09T04:06:48.923Z,17.41
2022-08-09T04:09:41.872Z,17.37
2022-08-09T04:12:11.979Z,17.52
2022-08-09T04:15:01.780Z,17.62
2022-08-09T04:17:29.580Z,17.50
2022-08-09T04:19:56.698Z,17.71
2022-08-09T04:22:23.796Z,17.79
2022-08-09T04:24:50.636Z,17.73
2022-08-09T04:27:17.529Z,17.82
2022-08-09T04:29:49.573Z,17.85
2022-08-09T04:32:16.402Z,17.75
2022-08-09T04:34:54.351Z,17.82
2022-08-09T04:37:24.418Z,17.82
2022-08-09T04:40:35.948Z,17.89
2022-08-09T04:43:03.771Z,18.00
2022-08-09T04:45:31.088Z,18.02
2022-08-09T04:48:07.999Z,18.12
2022-08-09T04:50:38.165Z,18.12
2022-08-09T04:53:13.359Z,18.24
2022-08-09T04:55:52.622Z,18.24
2022-08-09T04:58:27.186Z,18.20
2022-08-09T05:00:54.743Z,18.27
2022-08-09T05:03:40.077Z,18.21
2022-08-09T05:06:09.295Z,18.17
2022-08-09T05:08:36.124Z,18.24
2022-08-09T16:10:56.407Z,34.12
2022-08-09T16:14:05.385Z,33.74
2022-08-09T16:16:18.435Z,33.24
2022-08-09T16:18:45.895Z,33.66
2022-08-09T16:21:17.811Z,33.71
2022-08-09T16:23:54.804Z,33.31
2022-08-09T16:26:35.507Z,33.99
2022-08-09T16:29:20.938Z,33.38
2022-08-09T16:32:19.750Z,32.90
2022-08-09T16:34:55.087Z,31.65
2022-08-09T16:37:54.993Z,32.63
2022-08-09T16:40:12.335Z,32.67
2022-08-09T16:42:44.840Z,32.53
2022-08-09T16:45:13.888Z,33.07
2022-08-09T16:48:38.011Z,32.84
2022-08-09T16:50:33.758Z,32.53
2022-08-09T16:53:02.166Z,31.72
2022-08-09T16:55:44.097Z,31.99
2022-08-09T16:58:17.017Z,32.46
2022-08-09T17:00:44.194Z,31.68
2022-08-09T17:03:21.906Z,32.01
2022-08-09T17:06:09.408Z,31.44
2022-08-09T17:09:03.211Z,32.02
2022-08-09T17:11:40.722Z,32.20
2022-08-09T17:14:08.470Z,31.27
2022-08-09T17:16:53.584Z,31.55
2022-08-09T17:19:20.964Z,31.41
2022-08-09T17:21:48.045Z,31.50
2022-08-09T17:24:30.447Z,31.35
2022-08-09T17:26:58.514Z,31.45
2022-08-09T17:29:31.673Z,31.14
2022-08-09T17:32:04.442Z,30.99
2022-08-09T17:35:01.101Z,30.97
2022-08-09T17:37:20.029Z,30.99
2022-08-09T17:39:53.746Z,30.61
2022-08-09T17:42:41.615Z,30.17
2022-08-09T17:45:15.930Z,30.36
2022-08-09T17:47:55.851Z,30.31
2022-08-09T17:50:36.511Z,30.32
2022-08-09T17:53:19.829Z,29.81
2022-08-09T17:58:42.769Z,29.67
2022-08-09T18:01:11.064Z,29.51
2022-08-09T18:06:32.296Z,29.59
2022-08-09T18:09:04.857Z,29.56
2022-08-09T18:12:04.812Z,29.33
2022-08-09T18:14:21.901Z,29.09
2022-08-09T18:16:49.782Z,28.98
2022-08-09T18:21:00.343Z,28.92
2022-08-09T18:22:05.364Z,28.74
2022-08-09T18:24:32.050Z,28.16
2022-08-09T18:27:01.109Z,28.51
2022-08-09T18:30:39.250Z,28.43
2022-08-09T18:32:14.931Z,28.33
2022-08-09T18:34:45.993Z,28.33
2022-08-09T18:37:48.554Z,28.23
2022-08-09T18:40:02.146Z,27.92
2022-08-09T18:42:30.662Z,27.65
2022-08-09T18:45:00.833Z,27.66
2022-08-09T18:47:32.608Z,27.35
2022-08-09T18:50:05.920Z,27.32
2022-08-09T18:52:36.093Z,27.31
2022-08-09T18:55:04.977Z,27.22
2022-08-09T18:57:38.450Z,27.10
2022-08-09T19:00:11.758Z,27.01
2022-08-09T19:02:43.768Z,26.77
2022-08-09T19:05:20.471Z,26.76
2022-08-09T19:07:59.222Z,26.76
2022-08-09T19:10:39.090Z,26.60
2022-08-09T19:13:16.108Z,26.54
2022-08-09T19:15:50.268Z,26.57
2022-08-09T19:18:32.974Z,26.56
2022-08-09T19:21:01.620Z,26.52
2022-08-09T19:24:31.882Z,26.32
2022-08-09T19:26:16.114Z,26.18
2022-08-09T19:28:42.815Z,26.13
2022-08-09T19:31:15.579Z,26.21
2022-08-09T19:33:43.527Z,26.22
2022-08-09T19:36:13.436Z,26.11
2022-08-09T19:38:40.558Z,26.06
2022-08-09T19:41:11.877Z,25.94
2022-08-09T19:44:02.829Z,25.82
2022-08-09T19:46:35.566Z,25.82
2022-08-09T19:50:06.932Z,25.71
2022-08-09T19:51:58.007Z,25.65
2022-08-09T19:54:27.122Z,25.73
2022-08-09T19:56:57.142Z,25.65
2022-08-09T19:59:57.755Z,25.58
2022-08-09T20:04:07.181Z,25.37
2022-08-09T20:05:10.336Z,25.44
2022-08-09T20:07:59.230Z,25.36
2022-08-09T20:10:34.384Z,25.38
2022-08-09T20:13:04.140Z,25.28
2022-08-09T20:16:36.616Z,25.13
2022-08-09T20:18:22.288Z,25.09
2022-08-09T20:20:51.154Z,25.06
2022-08-09T20:23:21.124Z,25.09
2022-08-09T20:25:52.414Z,24.96
2022-08-09T20:28:34.289Z,24.97
2022-08-09T20:31:04.747Z,24.87
2022-08-09T20:33:39.178Z,24.73
2022-08-09T20:36:10.374Z,24.59
2022-08-09T20:39:17.093Z,24.41
2022-08-09T20:41:35.084Z,24.52
2022-08-09T20:44:10.005Z,24.47
2022-08-09T20:46:44.405Z,24.51
2022-08-09T20:49:12.760Z,24.48
2022-08-09T20:51:40.911Z,24.51
2022-08-09T20:54:12.618Z,24.47
2022-08-09T20:56:44.154Z,24.32
2022-08-09T20:59:16.743Z,24.14
2022-08-09T21:01:50.798Z,24.32
2022-08-09T21:05:52.813Z,24.31
2022-08-09T21:07:11.982Z,24.28
2022-08-09T21:09:56.820Z,24.27
2022-08-09T21:15:14.034Z,24.17
2022-08-09T21:18:21.221Z,24.14
2022-08-09T21:20:31.309Z,23.98
2022-08-09T21:22:59.313Z,23.84
2022-08-09T21:25:56.275Z,23.81
2022-08-09T21:28:34.142Z,23.74
2022-08-09T21:31:17.959Z,23.47
2022-08-09T21:33:49.434Z,23.67
2022-08-09T21:36:19.089Z,23.69
2022-08-09T21:38:45.598Z,23.65
2022-08-09T21:41:17.949Z,23.77
2022-08-09T21:43:57.003Z,23.73
2022-08-09T21:46:24.943Z,23.39
2022-08-09T21:48:52.451Z,23.49
2022-08-09T21:51:24.541Z,23.54
2022-08-09T21:54:03.733Z,23.47
2022-08-09T21:56:33.916Z,23.50
2022-08-09T21:59:11.965Z,23.40
2022-08-09T22:02:00.358Z,23.39
2022-08-09T22:04:44.827Z,23.43
2022-08-09T22:07:35.371Z,23.28
2022-08-09T22:10:06.256Z,23.52
2022-08-09T22:12:33.488Z,23.52
2022-08-09T22:15:00.214Z,23.47
2022-08-09T22:17:27.732Z,23.40
2022-08-09T22:20:00.650Z,23.29
2022-08-09T22:22:28.770Z,23.30
2022-08-09T22:26:07.936Z,23.18
2022-08-09T22:27:42.453Z,23.18
2022-08-09T22:30:09.860Z,23.14
2022-08-09T22:32:37.470Z,23.03
2022-08-09T22:35:06.854Z,23.02
2022-08-09T22:38:06.598Z,22.99
2022-08-09T22:40:34.324Z,22.92
2022-08-09T22:43:01.063Z,22.85
2022-08-09T22:48:13.138Z,22.82
2022-08-09T22:48:35.002Z,22.70
2022-08-09T22:51:10.568Z,22.77
2022-08-09T22:53:58.165Z,22.70
2022-08-09T22:56:31.435Z,22.70
2022-08-09T22:59:06.103Z,22.53
2022-08-09T23:01:49.690Z,22.57
2022-08-09T23:04:17.222Z,22.51
2022-08-09T23:07:02.482Z,22.47
2022-08-09T23:09:29.088Z,22.34
2022-08-09T23:11:55.641Z,22.36
2022-08-09T23:14:30.264Z,22.47
2022-08-09T23:17:04.565Z,22.37
2022-08-09T23:19:31.171Z,22.24
2022-08-09T23:22:17.760Z,22.32
2022-08-09T23:24:44.303Z,22.40
2022-08-09T23:27:15.362Z,22.41
2022-08-09T23:29:42.376Z,22.24
2022-08-09T23:32:09.085Z,22.17
2022-08-09T23:34:35.779Z,22.16
2022-08-09T23:37:02.766Z,22.10
2022-08-09T23:39:29.582Z,22.14
2022-08-09T23:41:56.205Z,22.00
2022-08-09T23:44:22.782Z,21.97
2022-08-09T23:46:52.730Z,21.90
2022-08-09T23:49:24.747Z,22.03
2022-08-09T23:51:52.359Z,21.85
2022-08-09T23:54:19.847Z,21.88
2022-08-09T23:56:54.028Z,21.74
